createdAt,value
2022-11-24T12:01:10.858Z,98939.56
2022-11-24T12:04:43.734Z,98922.31
2022-11-24T12:08:20.677Z,98909.53
2022-11-24T12:11:34.953Z,98897.81
2022-11-24T12:14:58.246Z,98906.09
2022-11-24T12:18:00.030Z,98903.06
2022-11-24T12:21:26.273Z,98896.94
2022-11-24T12:24:31.321Z,98897.38
2022-11-24T12:27:50.366Z,98896.88
2022-11-24T12:31:05.921Z,98896.28
2022-11-24T12:34:20.039Z,98895.06
2022-11-24T12:37:49.200Z,98888.34
2022-11-24T12:41:39.581Z,98880.41
2022-11-24T12:44:43.863Z,98876.81
2022-11-24T12:47:46.690Z,98872.47
2022-11-24T12:50:52.026Z,98875.69
2022-11-24T12:53:58.041Z,98882.28
2022-11-24T12:57:10.275Z,98885.06
2022-11-24T13:00:29.639Z,98882.28
2022-11-24T13:03:37.172Z,98880.16
2022-11-24T13:06:49.391Z,98876.16
2022-11-24T13:10:40.070Z,98875.91
2022-11-24T13:14:02.615Z,98887.84
2022-11-24T13:17:43.523Z,98888.41
2022-11-24T13:20:52.058Z,98885.19
2022-11-24T13:24:02.644Z,98888.28
2022-11-24T13:27:16.431Z,98889.00
2022-11-24T13:30:33.712Z,98892.75
2022-11-24T13:33:36.303Z,98888.41
2022-11-24T13:36:53.319Z,98893.00
2022-11-24T13:40:00.270Z,98898.44
2022-11-24T13:43:05.018Z,98886.75
2022-11-24T13:46:10.074Z,98888.41
2022-11-24T13:49:20.877Z,98901.13
2022-11-24T13:52:49.531Z,98894.09
2022-11-24T13:56:03.351Z,98894.94
2022-11-24T13:59:19.182Z,98893.84
2022-11-24T14:02:23.734Z,98898.81
2022-11-24T14:05:39.339Z,98889.78
2022-11-24T14:08:46.547Z,98888.81
2022-11-24T14:12:08.576Z,98887.31
2022-11-24T14:15:23.915Z,98885.66
2022-11-24T14:18:26.260Z,98881.19
2022-11-24T14:21:35.903Z,98882.28
2022-11-24T14:24:41.533Z,98883.00
2022-11-24T14:27:46.593Z,98881.44
2022-11-24T14:30:48.682Z,98871.97
2022-11-24T14:34:06.772Z,98856.34
2022-11-24T14:37:12.067Z,98869.81
2022-11-24T14:40:47.099Z,98871.06
2022-11-24T14:43:50.329Z,98877.19
2022-11-24T14:47:02.862Z,98880.22
2022-11-24T14:50:19.312Z,98877.81
2022-11-24T14:53:26.315Z,98872.53
2022-11-24T14:56:40.006Z,98871.25
2022-11-24T14:59:42.053Z,98872.34
2022-11-24T15:02:55.665Z,98872.59
2022-11-24T15:06:03.393Z,98885.56
2022-11-24T15:09:07.019Z,98887.38
2022-11-24T15:12:29.361Z,98881.63
2022-11-24T15:15:37.573Z,98882.84
2022-11-24T15:18:50.347Z,98891.91
2022-11-24T15:21:53.615Z,98898.09
2022-11-24T15:24:55.586Z,98902.41
2022-11-24T15:28:01.389Z,98909.03
2022-11-24T15:31:06.955Z,98910.13
2022-11-24T15:34:13.792Z,98913.34
2022-11-24T15:37:15.730Z,98909.75
2022-11-24T15:40:18.655Z,98907.09
2022-11-24T15:43:34.818Z,98914.56
2022-11-24T15:46:43.205Z,98910.97
2022-11-24T15:49:47.008Z,98919.75
2022-11-24T15:52:52.246Z,98914.94
2022-11-24T15:55:56.773Z,98915.81
2022-11-24T15:59:00.051Z,98919.50
2022-11-24T16:02:01.908Z,98922.03
2022-11-24T16:05:08.348Z,98936.22
2022-11-24T16:08:17.898Z,98939.31
2022-11-24T16:11:22.919Z,98923.81
2022-11-24T16:14:26.610Z,98912.16
2022-11-24T16:17:32.436Z,98918.41
2022-11-24T16:20:37.719Z,98919.47
2022-11-24T16:23:41.049Z,98916.97
2022-11-24T16:26:43.859Z,98912.03
2022-11-24T16:29:46.777Z,98923.44
2022-11-24T16:33:11.004Z,98921.38
2022-11-24T16:36:17.344Z,98917.06
2022-11-24T16:42:40.127Z,98924.63
2022-11-24T16:45:45.471Z,98926.41
2022-11-24T16:48:49.887Z,98921.97
2022-11-24T16:51:55.170Z,98908.75
2022-11-24T16:54:59.012Z,98913.31
2022-11-24T16:58:05.040Z,98913.91
2022-11-24T17:01:13.989Z,98916.56
2022-11-24T17:04:19.376Z,98913.06
2022-11-24T17:07:25.579Z,98907.78
2022-11-24T17:10:28.040Z,98903.84
2022-11-24T17:13:33.858Z,98907.91
2022-11-24T17:16:43.925Z,98913.81
2022-11-24T17:19:48.847Z,98911.78
2022-11-24T17:22:56.743Z,98908.91
2022-11-24T17:26:05.823Z,98910.47
2022-11-24T17:29:10.899Z,98908.41
2022-11-24T17:32:15.194Z,98911.31
2022-11-24T17:35:18.848Z,98918.88
2022-11-24T17:38:31.254Z,98913.31
2022-11-24T17:41:35.398Z,98911.38
2022-11-24T17:44:37.913Z,98923.66
2022-11-24T17:47:42.785Z,98933.13
2022-11-24T17:50:45.953Z,98938.44
2022-11-24T17:53:49.949Z,98943.13
2022-11-24T17:56:54.726Z,98940.94
2022-11-24T17:59:57.932Z,98942.63
2022-11-24T18:03:01.347Z,98946.47
2022-11-24T18:06:15.226Z,98940.34
2022-11-24T18:09:18.621Z,98944.81
2022-11-24T18:12:24.044Z,98935.91
2022-11-24T18:15:26.655Z,98933.25
2022-11-24T18:18:29.080Z,98929.91
2022-11-24T18:21:31.332Z,98936.06
2022-11-24T18:24:34.314Z,98934.50
2022-11-24T18:27:37.806Z,98935.22
2022-11-24T18:30:40.035Z,98938.59
2022-11-24T18:33:44.031Z,98950.00
2022-11-24T18:36:52.709Z,98951.34
2022-11-24T18:39:57.525Z,98945.69
2022-11-24T18:43:03.056Z,98943.16
2022-11-24T18:46:14.625Z,98934.50
2022-11-24T18:49:16.794Z,98948.56
2022-11-24T18:52:21.355Z,98940.25
2022-11-24T18:55:24.847Z,98948.91
2022-11-24T18:58:35.979Z,98945.56
2022-11-24T19:01:39.906Z,98954.09
2022-11-24T19:04:44.649Z,98946.03
2022-11-24T19:07:50.344Z,98944.97
2022-11-24T19:10:55.350Z,98949.66
2022-11-24T19:14:01.258Z,98952.53
2022-11-24T19:17:07.813Z,98945.22
2022-11-24T19:20:14.497Z,98938.38
2022-11-24T19:23:19.998Z,98955.41
2022-11-24T19:26:23.924Z,98938.81
2022-11-24T19:29:28.428Z,98946.75
2022-11-24T19:32:33.159Z,98946.50
2022-11-24T19:35:36.993Z,98937.50
2022-11-24T19:38:41.204Z,98934.38
2022-11-24T19:41:47.561Z,98937.63
2022-11-24T19:44:56.422Z,98946.28
2022-11-24T19:47:59.301Z,98943.50
2022-11-24T19:51:08.344Z,98938.34
2022-11-24T19:54:14.496Z,98945.06
2022-11-24T19:57:17.404Z,98950.94
2022-11-24T20:00:30.673Z,98957.53
2022-11-24T20:03:36.261Z,98952.50
2022-11-24T20:06:43.235Z,98948.28
2022-11-24T20:09:45.516Z,98957.06
2022-11-24T20:12:48.146Z,98952.75
2022-11-24T20:15:54.248Z,98951.06
2022-11-24T20:19:07.893Z,98949.50
2022-11-24T20:22:10.746Z,98949.97
2022-11-24T20:25:13.613Z,98944.94
2022-11-24T20:28:20.491Z,98947.44
2022-11-24T20:31:30.792Z,98948.88
2022-11-24T20:34:35.901Z,98942.16
2022-11-24T20:37:39.119Z,98948.03
2022-11-24T20:40:40.812Z,98947.31
2022-11-24T20:43:47.022Z,98936.63
2022-11-24T20:46:49.935Z,98938.31
2022-11-24T20:49:53.465Z,98944.69
2022-11-24T20:52:59.714Z,98950.22
2022-11-24T20:56:13.528Z,98953.59
2022-11-24T20:59:24.650Z,98946.09
2022-11-24T21:02:28.177Z,98939.59
2022-11-24T21:05:30.777Z,98949.34
2022-11-24T21:08:34.377Z,98945.03
2022-11-24T21:11:40.433Z,98944.91
2022-11-24T21:14:42.285Z,98941.66
2022-11-24T21:17:44.673Z,98951.28
2022-11-24T21:20:47.718Z,98951.03
2022-11-24T21:23:49.717Z,98949.47
2022-11-24T21:26:52.981Z,98940.09
2022-11-24T21:29:55.107Z,98939.72
2022-11-24T21:32:56.975Z,98941.66
2022-11-24T21:36:06.108Z,98935.06
2022-11-24T21:39:14.998Z,98944.31
2022-11-24T21:42:16.910Z,98939.41
2022-11-24T21:45:18.707Z,98940.34
2022-11-24T21:48:20.671Z,98943.72
2022-11-24T21:51:22.575Z,98927.59
2022-11-24T21:54:24.567Z,98932.28
2022-11-24T21:57:28.149Z,98925.56
2022-11-24T22:00:30.010Z,98933.13
2022-11-24T22:03:32.886Z,98932.28
2022-11-24T22:06:34.981Z,98927.72
2022-11-24T22:09:36.823Z,98932.03
2022-11-24T22:12:38.669Z,98935.91
2022-11-24T22:15:40.618Z,98918.94
2022-11-24T22:18:43.778Z,98930.63
2022-11-24T22:21:45.751Z,98926.03
2022-11-24T22:24:47.540Z,98929.78
2022-11-24T22:27:49.956Z,98942.75
2022-11-24T22:30:51.911Z,98943.47
2022-11-24T22:33:54.618Z,98947.19
2022-11-24T22:36:56.556Z,98943.34
2022-11-24T22:39:58.544Z,98940.81
2022-11-24T22:43:00.449Z,98940.09
2022-11-24T22:46:07.371Z,98937.47
2022-11-24T22:49:10.094Z,98955.25
2022-11-24T22:52:14.103Z,98952.97
2022-11-24T22:55:16.498Z,98946.47
2022-11-24T22:58:18.314Z,98953.09
2022-11-24T23:01:22.745Z,98955.84
2022-11-24T23:04:24.724Z,98955.97
2022-11-24T23:07:26.736Z,98949.84
2022-11-24T23:10:28.681Z,98958.72
2022-11-24T23:13:30.862Z,98962.31
2022-11-24T23:16:32.765Z,98961.81
2022-11-24T23:19:34.697Z,98943.91
2022-11-24T23:22:36.576Z,98950.53
2022-11-24T23:25:38.416Z,98959.69
2022-11-24T23:28:40.842Z,98964.25
2022-11-24T23:31:42.805Z,98968.06
2022-11-24T23:34:44.662Z,98967.00
2022-11-24T23:38:06.921Z,98969.38
2022-11-24T23:41:15.454Z,98974.34
2022-11-24T23:44:17.321Z,98973.72
2022-11-24T23:47:19.192Z,98959.56
2022-11-24T23:50:21.123Z,98958.00
2022-11-24T23:53:23.318Z,98955.59
2022-11-24T23:56:33.249Z,98946.72
2022-11-24T23:59:35.346Z,98935.56
